sensor_id;sensor_type;location;lat;lon;timestamp;P1;durP1;ratioP1;P2;durP2;ratioP2
5690;SDS011;2870;42.680;23.364;2023-06-04T00:00:51;15.33;;;5.50;;
5690;SDS011;2870;42.680;23.364;2023-06-04T00:03:18;7.53;;;5.30;;
5690;SDS011;2870;42.680;23.364;2023-06-04T00:05:45;9.20;;;5.47;;
5690;SDS011;2870;42.680;23.364;2023-06-04T00:08:12;8.03;;;4.80;;
5690;SDS011;2870;42.680;23.364;2023-06-04T00:10:38;10.63;;;5.67;;
5690;SDS011;2870;42.680;23.364;2023-06-04T00:13:05;7.73;;;5.00;;
5690;SDS011;2870;42.680;23.364;2023-06-04T00:15:32;7.00;;;5.00;;
5690;SDS011;2870;42.680;23.364;2023-06-04T00:18:01;7.33;;;4.70;;
5690;SDS011;2870;42.680;23.364;2023-06-04T00:20:28;8.50;;;5.40;;
5690;SDS011;2870;42.680;23.364;2023-06-04T00:22:55;8.80;;;5.40;;
5690;SDS011;2870;42.680;23.364;2023-06-04T00:25:22;7.00;;;5.03;;
5690;SDS011;2870;42.680;23.364;2023-06-04T00:27:48;10.20;;;5.33;;
5690;SDS011;2870;42.680;23.364;2023-06-04T00:30:15;8.60;;;5.27;;
5690;SDS011;2870;42.680;23.364;2023-06-04T00:32:42;9.83;;;6.00;;
5690;SDS011;2870;42.680;23.364;2023-06-04T00:35:10;8.00;;;5.60;;
5690;SDS011;2870;42.680;23.364;2023-06-04T00:37:37;8.50;;;5.83;;
5690;SDS011;2870;42.680;23.364;2023-06-04T00:40:04;9.43;;;5.30;;
5690;SDS011;2870;42.680;23.364;2023-06-04T00:42:32;8.53;;;5.83;;
5690;SDS011;2870;42.680;23.364;2023-06-04T00:44:58;8.60;;;5.77;;
5690;SDS011;2870;42.680;23.364;2023-06-04T00:47:26;10.33;;;5.73;;
5690;SDS011;2870;42.680;23.364;2023-06-04T00:49:53;10.00;;;6.70;;
5690;SDS011;2870;42.680;23.364;2023-06-04T00:52:25;15.60;;;5.77;;
5690;SDS011;2870;42.680;23.364;2023-06-04T00:54:52;10.87;;;5.43;;
5690;SDS011;2870;42.680;23.364;2023-06-04T00:57:19;7.20;;;5.13;;
5690;SDS011;2870;42.680;23.364;2023-06-04T00:59:47;10.27;;;5.47;;
5690;SDS011;2870;42.680;23.364;2023-06-04T01:02:15;7.83;;;5.50;;
5690;SDS011;2870;42.680;23.364;2023-06-04T01:04:46;10.07;;;5.87;;
5690;SDS011;2870;42.680;23.364;2023-06-04T01:07:19;8.70;;;5.80;;
5690;SDS011;2870;42.680;23.364;2023-06-04T01:09:49;7.30;;;5.67;;
5690;SDS011;2870;42.680;23.364;2023-06-04T01:12:16;12.10;;;6.30;;
5690;SDS011;2870;42.680;23.364;2023-06-04T01:14:43;8.50;;;5.63;;
5690;SDS011;2870;42.680;23.364;2023-06-04T01:17:13;8.70;;;5.70;;
5690;SDS011;2870;42.680;23.364;2023-06-04T01:22:42;9.47;;;5.53;;
5690;SDS011;2870;42.680;23.364;2023-06-04T01:25:15;9.37;;;5.23;;
5690;SDS011;2870;42.680;23.364;2023-06-04T01:27:48;10.30;;;5.07;;
5690;SDS011;2870;42.680;23.364;2023-06-04T01:30:18;9.40;;;5.20;;
5690;SDS011;2870;42.680;23.364;2023-06-04T01:32:46;6.40;;;4.67;;
5690;SDS011;2870;42.680;23.364;2023-06-04T01:35:13;7.83;;;5.50;;
5690;SDS011;2870;42.680;23.364;2023-06-04T01:37:40;7.77;;;5.13;;
5690;SDS011;2870;42.680;23.364;2023-06-04T01:40:07;8.07;;;4.87;;
5690;SDS011;2870;42.680;23.364;2023-06-04T01:42:37;6.50;;;4.43;;
5690;SDS011;2870;42.680;23.364;2023-06-04T01:45:04;6.87;;;4.87;;
5690;SDS011;2870;42.680;23.364;2023-06-04T01:47:31;13.13;;;5.00;;
5690;SDS011;2870;42.680;23.364;2023-06-04T01:49:58;6.73;;;4.57;;
5690;SDS011;2870;42.680;23.364;2023-06-04T01:52:25;7.07;;;4.70;;
5690;SDS011;2870;42.680;23.364;2023-06-04T01:54:52;5.63;;;4.23;;
5690;SDS011;2870;42.680;23.364;2023-06-04T01:57:20;7.93;;;4.60;;
5690;SDS011;2870;42.680;23.364;2023-06-04T01:59:49;9.83;;;5.30;;
5690;SDS011;2870;42.680;23.364;2023-06-04T02:02:15;8.07;;;5.23;;
5690;SDS011;2870;42.680;23.364;2023-06-04T02:04:43;7.17;;;5.10;;
5690;SDS011;2870;42.680;23.364;2023-06-04T02:07:11;8.83;;;5.10;;
5690;SDS011;2870;42.680;23.364;2023-06-04T02:09:42;9.37;;;5.10;;
5690;SDS011;2870;42.680;23.364;2023-06-04T02:12:10;8.10;;;4.83;;
5690;SDS011;2870;42.680;23.364;2023-06-04T02:14:37;6.30;;;4.33;;
5690;SDS011;2870;42.680;23.364;2023-06-04T02:17:05;8.23;;;5.10;;
5690;SDS011;2870;42.680;23.364;2023-06-04T02:19:38;8.60;;;4.70;;
5690;SDS011;2870;42.680;23.364;2023-06-04T02:22:09;9.00;;;5.30;;
5690;SDS011;2870;42.680;23.364;2023-06-04T02:24:36;8.50;;;5.37;;
5690;SDS011;2870;42.680;23.364;2023-06-04T02:27:04;11.20;;;5.93;;
5690;SDS011;2870;42.680;23.364;2023-06-04T02:29:31;8.50;;;5.80;;
5690;SDS011;2870;42.680;23.364;2023-06-04T02:31:58;7.57;;;4.93;;
5690;SDS011;2870;42.680;23.364;2023-06-04T02:34:27;11.47;;;5.33;;
5690;SDS011;2870;42.680;23.364;2023-06-04T02:36:54;14.40;;;5.83;;
5690;SDS011;2870;42.680;23.364;2023-06-04T02:39:21;7.17;;;5.20;;
5690;SDS011;2870;42.680;23.364;2023-06-04T02:41:48;9.27;;;5.40;;
5690;SDS011;2870;42.680;23.364;2023-06-04T02:44:14;6.50;;;4.70;;
5690;SDS011;2870;42.680;23.364;2023-06-04T02:46:41;8.70;;;5.53;;
5690;SDS011;2870;42.680;23.364;2023-06-04T02:49:08;7.40;;;5.60;;
5690;SDS011;2870;42.680;23.364;2023-06-04T02:51:40;8.30;;;5.93;;
5690;SDS011;2870;42.680;23.364;2023-06-04T02:54:06;8.17;;;5.90;;
5690;SDS011;2870;42.680;23.364;2023-06-04T02:56:33;7.70;;;5.23;;
5690;SDS011;2870;42.680;23.364;2023-06-04T02:59:01;9.43;;;5.97;;
5690;SDS011;2870;42.680;23.364;2023-06-04T03:01:28;9.17;;;5.90;;
5690;SDS011;2870;42.680;23.364;2023-06-04T03:03:55;9.30;;;6.10;;
5690;SDS011;2870;42.680;23.364;2023-06-04T03:06:23;7.27;;;5.30;;
5690;SDS011;2870;42.680;23.364;2023-06-04T03:08:52;7.83;;;5.27;;
5690;SDS011;2870;42.680;23.364;2023-06-04T03:11:19;7.83;;;5.50;;
5690;SDS011;2870;42.680;23.364;2023-06-04T03:13:46;11.50;;;5.80;;
5690;SDS011;2870;42.680;23.364;2023-06-04T03:16:14;10.07;;;5.60;;
5690;SDS011;2870;42.680;23.364;2023-06-04T03:18:42;7.30;;;5.30;;
5690;SDS011;2870;42.680;23.364;2023-06-04T03:21:09;8.07;;;5.33;;
5690;SDS011;2870;42.680;23.364;2023-06-04T03:23:37;10.27;;;5.30;;
5690;SDS011;2870;42.680;23.364;2023-06-04T03:26:06;8.00;;;5.43;;
5690;SDS011;2870;42.680;23.364;2023-06-04T03:28:33;8.13;;;5.23;;
5690;SDS011;2870;42.680;23.364;2023-06-04T03:31:00;7.83;;;5.20;;
5690;SDS011;2870;42.680;23.364;2023-06-04T03:33:27;8.07;;;5.70;;
5690;SDS011;2870;42.680;23.364;2023-06-04T03:35:54;7.00;;;4.97;;
5690;SDS011;2870;42.680;23.364;2023-06-04T03:38:22;7.03;;;4.87;;
5690;SDS011;2870;42.680;23.364;2023-06-04T03:40:50;8.70;;;5.00;;
5690;SDS011;2870;42.680;23.364;2023-06-04T03:43:19;10.00;;;5.83;;
5690;SDS011;2870;42.680;23.364;2023-06-04T03:45:46;10.47;;;6.30;;
5690;SDS011;2870;42.680;23.364;2023-06-04T03:48:13;6.60;;;4.80;;
5690;SDS011;2870;42.680;23.364;2023-06-04T03:50:40;6.70;;;4.50;;
5690;SDS011;2870;42.680;23.364;2023-06-04T03:53:07;6.43;;;4.70;;
5690;SDS011;2870;42.680;23.364;2023-06-04T03:55:34;7.20;;;5.13;;
5690;SDS011;2870;42.680;23.364;2023-06-04T03:58:02;7.90;;;4.90;;
5690;SDS011;2870;42.680;23.364;2023-06-04T04:00:30;8.93;;;5.10;;
5690;SDS011;2870;42.680;23.364;2023-06-04T04:02:57;8.03;;;4.93;;
5690;SDS011;2870;42.680;23.364;2023-06-04T04:05:23;7.47;;;5.00;;
5690;SDS011;2870;42.680;23.364;2023-06-04T04:07:50;7.80;;;5.20;;
5690;SDS011;2870;42.680;23.364;2023-06-04T04:10:17;9.87;;;5.33;;
5690;SDS011;2870;42.680;23.364;2023-06-04T04:12:44;7.53;;;5.00;;
5690;SDS011;2870;42.680;23.364;2023-06-04T04:15:11;9.60;;;5.00;;
5690;SDS011;2870;42.680;23.364;2023-06-04T04:17:40;10.53;;;6.10;;
5690;SDS011;2870;42.680;23.364;2023-06-04T04:20:07;13.47;;;5.67;;
5690;SDS011;2870;42.680;23.364;2023-06-04T04:22:34;7.50;;;5.53;;
5690;SDS011;2870;42.680;23.364;2023-06-04T04:25:01;14.53;;;5.13;;
5690;SDS011;2870;42.680;23.364;2023-06-04T04:27:28;8.00;;;5.53;;
5690;SDS011;2870;42.680;23.364;2023-06-04T04:29:55;9.13;;;5.60;;
5690;SDS011;2870;42.680;23.364;2023-06-04T04:32:25;11.47;;;6.00;;
5690;SDS011;2870;42.680;23.364;2023-06-04T04:34:53;10.50;;;5.83;;
5690;SDS011;2870;42.680;23.364;2023-06-04T04:37:20;11.90;;;6.50;;
5690;SDS011;2870;42.680;23.364;2023-06-04T04:39:48;8.97;;;5.50;;
5690;SDS011;2870;42.680;23.364;2023-06-04T04:42:17;13.27;;;6.33;;
5690;SDS011;2870;42.680;23.364;2023-06-04T04:44:44;8.60;;;6.07;;
5690;SDS011;2870;42.680;23.364;2023-06-04T04:47:13;10.53;;;6.00;;
5690;SDS011;2870;42.680;23.364;2023-06-04T04:49:40;9.77;;;6.93;;
5690;SDS011;2870;42.680;23.364;2023-06-04T04:52:08;8.87;;;6.60;;
5690;SDS011;2870;42.680;23.364;2023-06-04T04:54:35;9.33;;;6.73;;
5690;SDS011;2870;42.680;23.364;2023-06-04T04:57:02;8.20;;;5.63;;
5690;SDS011;2870;42.680;23.364;2023-06-04T04:59:29;12.13;;;7.10;;
5690;SDS011;2870;42.680;23.364;2023-06-04T05:01:56;11.90;;;5.67;;
5690;SDS011;2870;42.680;23.364;2023-06-04T05:04:23;10.00;;;6.57;;
5690;SDS011;2870;42.680;23.364;2023-06-04T05:06:49;10.30;;;7.13;;
5690;SDS011;2870;42.680;23.364;2023-06-04T05:09:18;8.67;;;6.20;;
5690;SDS011;2870;42.680;23.364;2023-06-04T05:11:45;13.23;;;7.70;;
5690;SDS011;2870;42.680;23.364;2023-06-04T05:14:12;11.57;;;6.60;;
5690;SDS011;2870;42.680;23.364;2023-06-04T05:16:39;10.00;;;7.80;;
5690;SDS011;2870;42.680;23.364;2023-06-04T05:19:06;10.17;;;7.10;;
5690;SDS011;2870;42.680;23.364;2023-06-04T05:21:36;11.23;;;7.03;;
5690;SDS011;2870;42.680;23.364;2023-06-04T05:24:02;9.90;;;6.83;;
5690;SDS011;2870;42.680;23.364;2023-06-04T05:26:31;20.03;;;7.47;;
5690;SDS011;2870;42.680;23.364;2023-06-04T05:28:58;15.83;;;9.23;;
5690;SDS011;2870;42.680;23.364;2023-06-04T05:31:25;14.37;;;8.20;;
5690;SDS011;2870;42.680;23.364;2023-06-04T05:33:52;10.50;;;7.50;;
5690;SDS011;2870;42.680;23.364;2023-06-04T05:36:19;12.43;;;7.50;;
5690;SDS011;2870;42.680;23.364;2023-06-04T05:38:47;13.40;;;6.60;;
5690;SDS011;2870;42.680;23.364;2023-06-04T05:41:22;11.47;;;6.70;;
5690;SDS011;2870;42.680;23.364;2023-06-04T05:43:51;12.80;;;8.13;;
5690;SDS011;2870;42.680;23.364;2023-06-04T05:46:17;15.43;;;6.77;;
5690;SDS011;2870;42.680;23.364;2023-06-04T05:48:44;12.60;;;7.87;;
5690;SDS011;2870;42.680;23.364;2023-06-04T05:51:13;11.37;;;7.60;;
5690;SDS011;2870;42.680;23.364;2023-06-04T05:53:40;11.57;;;7.57;;
5690;SDS011;2870;42.680;23.364;2023-06-04T05:56:07;12.13;;;8.10;;
5690;SDS011;2870;42.680;23.364;2023-06-04T05:58:34;12.17;;;7.43;;
5690;SDS011;2870;42.680;23.364;2023-06-04T06:01:02;13.67;;;7.97;;
5690;SDS011;2870;42.680;23.364;2023-06-04T06:03:29;11.23;;;8.13;;
5690;SDS011;2870;42.680;23.364;2023-06-04T06:05:56;10.53;;;7.00;;
5690;SDS011;2870;42.680;23.364;2023-06-04T06:08:25;11.00;;;7.50;;
5690;SDS011;2870;42.680;23.364;2023-06-04T06:10:51;9.93;;;7.90;;
5690;SDS011;2870;42.680;23.364;2023-06-04T06:13:18;11.80;;;7.50;;
5690;SDS011;2870;42.680;23.364;2023-06-04T06:15:45;11.90;;;8.20;;
5690;SDS011;2870;42.680;23.364;2023-06-04T06:18:14;11.10;;;7.40;;
5690;SDS011;2870;42.680;23.364;2023-06-04T06:20:41;11.93;;;7.47;;
5690;SDS011;2870;42.680;23.364;2023-06-04T06:23:09;14.23;;;7.63;;
5690;SDS011;2870;42.680;23.364;2023-06-04T06:25:36;11.77;;;7.27;;
5690;SDS011;2870;42.680;23.364;2023-06-04T06:28:05;14.07;;;8.50;;
5690;SDS011;2870;42.680;23.364;2023-06-04T06:30:32;10.03;;;7.43;;
5690;SDS011;2870;42.680;23.364;2023-06-04T06:32:59;14.83;;;6.80;;
5690;SDS011;2870;42.680;23.364;2023-06-04T06:35:27;11.37;;;6.67;;
5690;SDS011;2870;42.680;23.364;2023-06-04T06:37:54;23.67;;;7.60;;
5690;SDS011;2870;42.680;23.364;2023-06-04T06:40:21;9.63;;;6.63;;
5690;SDS011;2870;42.680;23.364;2023-06-04T06:42:48;10.17;;;6.83;;
5690;SDS011;2870;42.680;23.364;2023-06-04T06:45:16;17.67;;;7.30;;
5690;SDS011;2870;42.680;23.364;2023-06-04T06:47:43;11.77;;;7.70;;
5690;SDS011;2870;42.680;23.364;2023-06-04T06:50:10;12.80;;;7.97;;
5690;SDS011;2870;42.680;23.364;2023-06-04T06:52:38;14.57;;;7.80;;
5690;SDS011;2870;42.680;23.364;2023-06-04T06:55:05;12.57;;;6.70;;
5690;SDS011;2870;42.680;23.364;2023-06-04T06:57:32;9.53;;;6.60;;
5690;SDS011;2870;42.680;23.364;2023-06-04T06:59:59;10.40;;;7.13;;
5690;SDS011;2870;42.680;23.364;2023-06-04T07:02:26;12.53;;;7.37;;
5690;SDS011;2870;42.680;23.364;2023-06-04T07:04:53;10.10;;;7.17;;
5690;SDS011;2870;42.680;23.364;2023-06-04T07:07:20;11.77;;;7.07;;
5690;SDS011;2870;42.680;23.364;2023-06-04T07:09:49;11.90;;;6.27;;
5690;SDS011;2870;42.680;23.364;2023-06-04T07:12:16;9.33;;;6.30;;
5690;SDS011;2870;42.680;23.364;2023-06-04T07:14:42;13.13;;;7.33;;
5690;SDS011;2870;42.680;23.364;2023-06-04T07:17:10;8.83;;;6.30;;
5690;SDS011;2870;42.680;23.364;2023-06-04T07:19:36;13.23;;;6.97;;
5690;SDS011;2870;42.680;23.364;2023-06-04T07:22:04;10.60;;;8.00;;
5690;SDS011;2870;42.680;23.364;2023-06-04T07:24:30;10.87;;;6.73;;
5690;SDS011;2870;42.680;23.364;2023-06-04T07:26:59;16.93;;;7.10;;
5690;SDS011;2870;42.680;23.364;2023-06-04T07:29:26;32.60;;;8.77;;
5690;SDS011;2870;42.680;23.364;2023-06-04T07:31:53;14.23;;;7.43;;
5690;SDS011;2870;42.680;23.364;2023-06-04T07:34:21;13.00;;;7.23;;
5690;SDS011;2870;42.680;23.364;2023-06-04T07:36:48;11.13;;;7.27;;
5690;SDS011;2870;42.680;23.364;2023-06-04T07:39:15;15.00;;;7.37;;
5690;SDS011;2870;42.680;23.364;2023-06-04T07:41:42;13.60;;;6.93;;
5690;SDS011;2870;42.680;23.364;2023-06-04T07:44:10;13.60;;;7.67;;
5690;SDS011;2870;42.680;23.364;2023-06-04T07:46:38;17.33;;;7.37;;
5690;SDS011;2870;42.680;23.364;2023-06-04T07:49:04;11.80;;;7.97;;
5690;SDS011;2870;42.680;23.364;2023-06-04T07:51:32;11.57;;;7.57;;
5690;SDS011;2870;42.680;23.364;2023-06-04T07:53:59;10.57;;;7.50;;
5690;SDS011;2870;42.680;23.364;2023-06-04T07:56:27;13.57;;;7.63;;
5690;SDS011;2870;42.680;23.364;2023-06-04T07:58:53;13.90;;;7.80;;
5690;SDS011;2870;42.680;23.364;2023-06-04T08:01:22;11.50;;;7.53;;
5690;SDS011;2870;42.680;23.364;2023-06-04T08:03:49;19.53;;;8.53;;
5690;SDS011;2870;42.680;23.364;2023-06-04T08:06:16;11.60;;;7.57;;
5690;SDS011;2870;42.680;23.364;2023-06-04T08:08:44;17.20;;;8.10;;
5690;SDS011;2870;42.680;23.364;2023-06-04T08:11:13;10.17;;;7.17;;
5690;SDS011;2870;42.680;23.364;2023-06-04T08:13:40;11.40;;;7.03;;
5690;SDS011;2870;42.680;23.364;2023-06-04T08:16:08;11.80;;;7.40;;
5690;SDS011;2870;42.680;23.364;2023-06-04T08:18:38;17.33;;;7.00;;
5690;SDS011;2870;42.680;23.364;2023-06-04T08:21:08;13.10;;;7.17;;
5690;SDS011;2870;42.680;23.364;2023-06-04T08:23:35;11.23;;;7.50;;
5690;SDS011;2870;42.680;23.364;2023-06-04T08:26:02;10.73;;;7.60;;
5690;SDS011;2870;42.680;23.364;2023-06-04T08:28:30;14.63;;;7.50;;
5690;SDS011;2870;42.680;23.364;2023-06-04T08:30:56;15.60;;;7.23;;
5690;SDS011;2870;42.680;23.364;2023-06-04T08:33:24;12.37;;;7.70;;
5690;SDS011;2870;42.680;23.364;2023-06-04T08:35:52;12.87;;;7.83;;
5690;SDS011;2870;42.680;23.364;2023-06-04T08:38:20;11.20;;;7.47;;
5690;SDS011;2870;42.680;23.364;2023-06-04T08:40:47;10.60;;;7.80;;
5690;SDS011;2870;42.680;23.364;2023-06-04T08:43:18;22.90;;;10.10;;
5690;SDS011;2870;42.680;23.364;2023-06-04T08:45:45;11.20;;;7.33;;
5690;SDS011;2870;42.680;23.364;2023-06-04T08:48:16;13.83;;;7.77;;
5690;SDS011;2870;42.680;23.364;2023-06-04T08:50:46;15.17;;;8.33;;
5690;SDS011;2870;42.680;23.364;2023-06-04T08:53:17;18.03;;;8.70;;
5690;SDS011;2870;42.680;23.364;2023-06-04T08:55:44;12.90;;;8.47;;
5690;SDS011;2870;42.680;23.364;2023-06-04T08:58:13;13.60;;;7.63;;
5690;SDS011;2870;42.680;23.364;2023-06-04T09:00:40;15.33;;;9.43;;
5690;SDS011;2870;42.680;23.364;2023-06-04T09:03:07;16.37;;;9.07;;
5690;SDS011;2870;42.680;23.364;2023-06-04T09:05:36;13.93;;;8.60;;
5690;SDS011;2870;42.680;23.364;2023-06-04T09:08:04;12.87;;;8.80;;
5690;SDS011;2870;42.680;23.364;2023-06-04T09:10:35;20.13;;;9.27;;
5690;SDS011;2870;42.680;23.364;2023-06-04T09:13:04;22.83;;;14.00;;
5690;SDS011;2870;42.680;23.364;2023-06-04T09:15:34;16.30;;;8.13;;
5690;SDS011;2870;42.680;23.364;2023-06-04T09:18:01;12.57;;;8.50;;
5690;SDS011;2870;42.680;23.364;2023-06-04T09:20:28;13.70;;;9.00;;
5690;SDS011;2870;42.680;23.364;2023-06-04T09:22:55;19.13;;;10.00;;
5690;SDS011;2870;42.680;23.364;2023-06-04T09:25:22;15.67;;;9.33;;
5690;SDS011;2870;42.680;23.364;2023-06-04T09:27:52;18.73;;;9.30;;
5690;SDS011;2870;42.680;23.364;2023-06-04T09:30:20;14.07;;;8.80;;
5690;SDS011;2870;42.680;23.364;2023-06-04T09:32:47;14.47;;;8.60;;
5690;SDS011;2870;42.680;23.364;2023-06-04T09:35:14;14.23;;;8.40;;
5690;SDS011;2870;42.680;23.364;2023-06-04T09:37:43;14.07;;;9.03;;
5690;SDS011;2870;42.680;23.364;2023-06-04T09:40:18;15.47;;;8.93;;
5690;SDS011;2870;42.680;23.364;2023-06-04T09:42:46;15.70;;;8.50;;
5690;SDS011;2870;42.680;23.364;2023-06-04T09:45:27;14.70;;;8.33;;
5690;SDS011;2870;42.680;23.364;2023-06-04T09:47:55;18.60;;;9.00;;
5690;SDS011;2870;42.680;23.364;2023-06-04T09:50:24;16.67;;;9.07;;
5690;SDS011;2870;42.680;23.364;2023-06-04T09:52:52;12.77;;;8.73;;
5690;SDS011;2870;42.680;23.364;2023-06-04T09:55:19;15.00;;;9.57;;
5690;SDS011;2870;42.680;23.364;2023-06-04T09:57:47;13.37;;;9.70;;
5690;SDS011;2870;42.680;23.364;2023-06-04T10:00:16;18.07;;;9.70;;
5690;SDS011;2870;42.680;23.364;2023-06-04T10:02:45;13.07;;;8.40;;
5690;SDS011;2870;42.680;23.364;2023-06-04T10:05:13;12.60;;;8.67;;
5690;SDS011;2870;42.680;23.364;2023-06-04T10:07:41;11.43;;;7.97;;
5690;SDS011;2870;42.680;23.364;2023-06-04T10:10:10;11.10;;;7.80;;
5690;SDS011;2870;42.680;23.364;2023-06-04T10:12:41;13.83;;;8.37;;
5690;SDS011;2870;42.680;23.364;2023-06-04T10:15:10;11.93;;;7.73;;
5690;SDS011;2870;42.680;23.364;2023-06-04T10:17:38;15.60;;;7.10;;
5690;SDS011;2870;42.680;23.364;2023-06-04T10:20:08;24.43;;;8.47;;
5690;SDS011;2870;42.680;23.364;2023-06-04T10:22:36;13.73;;;7.27;;
5690;SDS011;2870;42.680;23.364;2023-06-04T10:25:04;13.27;;;7.97;;
5690;SDS011;2870;42.680;23.364;2023-06-04T10:27:31;10.50;;;6.93;;
5690;SDS011;2870;42.680;23.364;2023-06-04T10:30:00;24.37;;;7.03;;
5690;SDS011;2870;42.680;23.364;2023-06-04T10:32:28;16.50;;;8.60;;
5690;SDS011;2870;42.680;23.364;2023-06-04T10:34:56;10.53;;;6.90;;
5690;SDS011;2870;42.680;23.364;2023-06-04T10:37:25;14.00;;;7.10;;
5690;SDS011;2870;42.680;23.364;2023-06-04T10:39:54;12.33;;;8.00;;
5690;SDS011;2870;42.680;23.364;2023-06-04T10:42:22;13.20;;;8.27;;
5690;SDS011;2870;42.680;23.364;2023-06-04T10:44:50;13.67;;;7.50;;
5690;SDS011;2870;42.680;23.364;2023-06-04T10:47:19;12.73;;;7.80;;
5690;SDS011;2870;42.680;23.364;2023-06-04T10:49:47;11.40;;;7.20;;
5690;SDS011;2870;42.680;23.364;2023-06-04T10:52:14;18.53;;;7.60;;
5690;SDS011;2870;42.680;23.364;2023-06-04T10:54:42;12.20;;;8.97;;
5690;SDS011;2870;42.680;23.364;2023-06-04T10:57:11;14.13;;;8.57;;
5690;SDS011;2870;42.680;23.364;2023-06-04T10:59:39;12.53;;;8.33;;
5690;SDS011;2870;42.680;23.364;2023-06-04T11:02:06;13.67;;;8.60;;
5690;SDS011;2870;42.680;23.364;2023-06-04T11:04:33;12.30;;;8.90;;
5690;SDS011;2870;42.680;23.364;2023-06-04T11:07:02;11.27;;;8.27;;
5690;SDS011;2870;42.680;23.364;2023-06-04T11:09:29;13.17;;;9.50;;
5690;SDS011;2870;42.680;23.364;2023-06-04T11:11:58;11.50;;;9.00;;
5690;SDS011;2870;42.680;23.364;2023-06-04T11:14:26;13.63;;;9.30;;
5690;SDS011;2870;42.680;23.364;2023-06-04T11:16:53;11.80;;;8.60;;
5690;SDS011;2870;42.680;23.364;2023-06-04T11:19:19;15.63;;;9.67;;
5690;SDS011;2870;42.680;23.364;2023-06-04T11:21:47;12.13;;;9.67;;
5690;SDS011;2870;42.680;23.364;2023-06-04T11:24:15;14.80;;;9.50;;
5690;SDS011;2870;42.680;23.364;2023-06-04T11:26:42;13.83;;;9.37;;
5690;SDS011;2870;42.680;23.364;2023-06-04T11:29:12;15.10;;;9.77;;
5690;SDS011;2870;42.680;23.364;2023-06-04T11:31:41;15.33;;;9.43;;
5690;SDS011;2870;42.680;23.364;2023-06-04T11:34:09;15.97;;;10.17;;
5690;SDS011;2870;42.680;23.364;2023-06-04T11:36:37;17.53;;;11.67;;
5690;SDS011;2870;42.680;23.364;2023-06-04T11:39:05;12.87;;;10.20;;
5690;SDS011;2870;42.680;23.364;2023-06-04T11:41:32;16.47;;;10.70;;
5690;SDS011;2870;42.680;23.364;2023-06-04T11:44:02;12.80;;;9.87;;
5690;SDS011;2870;42.680;23.364;2023-06-04T11:46:32;14.17;;;9.97;;
5690;SDS011;2870;42.680;23.364;2023-06-04T11:48:59;11.97;;;8.37;;
5690;SDS011;2870;42.680;23.364;2023-06-04T11:51:26;16.30;;;10.43;;
5690;SDS011;2870;42.680;23.364;2023-06-04T11:53:52;12.17;;;10.00;;
5690;SDS011;2870;42.680;23.364;2023-06-04T11:56:20;13.30;;;9.50;;
5690;SDS011;2870;42.680;23.364;2023-06-04T11:58:47;14.30;;;10.23;;
5690;SDS011;2870;42.680;23.364;2023-06-04T12:01:15;13.07;;;9.63;;
5690;SDS011;2870;42.680;23.364;2023-06-04T12:03:44;12.57;;;10.03;;
5690;SDS011;2870;42.680;23.364;2023-06-04T12:06:11;14.73;;;9.17;;
5690;SDS011;2870;42.680;23.364;2023-06-04T12:08:47;18.80;;;10.70;;
5690;SDS011;2870;42.680;23.364;2023-06-04T12:11:23;12.23;;;10.10;;
5690;SDS011;2870;42.680;23.364;2023-06-04T12:13:51;12.73;;;10.40;;
5690;SDS011;2870;42.680;23.364;2023-06-04T12:16:19;17.80;;;9.73;;
5690;SDS011;2870;42.680;23.364;2023-06-04T12:18:48;13.87;;;9.60;;
5690;SDS011;2870;42.680;23.364;2023-06-04T12:21:22;14.57;;;10.80;;
5690;SDS011;2870;42.680;23.364;2023-06-04T12:23:52;13.70;;;10.83;;
5690;SDS011;2870;42.680;23.364;2023-06-04T12:26:21;13.13;;;10.10;;
5690;SDS011;2870;42.680;23.364;2023-06-04T12:28:59;15.70;;;11.33;;
5690;SDS011;2870;42.680;23.364;2023-06-04T12:31:29;18.53;;;11.33;;
5690;SDS011;2870;42.680;23.364;2023-06-04T12:33:59;15.13;;;10.03;;
5690;SDS011;2870;42.680;23.364;2023-06-04T12:36:27;11.40;;;9.53;;
5690;SDS011;2870;42.680;23.364;2023-06-04T12:38:57;19.60;;;9.90;;
5690;SDS011;2870;42.680;23.364;2023-06-04T12:41:25;19.53;;;10.00;;
5690;SDS011;2870;42.680;23.364;2023-06-04T12:43:52;13.40;;;10.63;;
5690;SDS011;2870;42.680;23.364;2023-06-04T12:46:20;16.80;;;11.60;;
5690;SDS011;2870;42.680;23.364;2023-06-04T12:48:47;15.23;;;9.60;;
5690;SDS011;2870;42.680;23.364;2023-06-04T12:51:15;13.83;;;9.57;;
5690;SDS011;2870;42.680;23.364;2023-06-04T12:53:43;15.07;;;9.63;;
5690;SDS011;2870;42.680;23.364;2023-06-04T12:56:10;17.63;;;11.10;;
5690;SDS011;2870;42.680;23.364;2023-06-04T12:58:37;15.30;;;9.50;;
5690;SDS011;2870;42.680;23.364;2023-06-04T13:01:04;11.73;;;9.33;;
5690;SDS011;2870;42.680;23.364;2023-06-04T13:03:31;12.40;;;10.20;;
5690;SDS011;2870;42.680;23.364;2023-06-04T13:05:58;12.83;;;8.93;;
5690;SDS011;2870;42.680;23.364;2023-06-04T13:08:26;14.63;;;9.93;;
5690;SDS011;2870;42.680;23.364;2023-06-04T13:10:53;13.60;;;9.27;;
5690;SDS011;2870;42.680;23.364;2023-06-04T13:13:20;14.40;;;10.67;;
5690;SDS011;2870;42.680;23.364;2023-06-04T13:15:47;11.97;;;10.20;;
5690;SDS011;2870;42.680;23.364;2023-06-04T13:18:14;12.03;;;9.43;;
5690;SDS011;2870;42.680;23.364;2023-06-04T13:20:41;15.97;;;10.30;;
5690;SDS011;2870;42.680;23.364;2023-06-04T13:23:09;12.10;;;9.37;;
5690;SDS011;2870;42.680;23.364;2023-06-04T13:25:38;14.63;;;9.53;;
5690;SDS011;2870;42.680;23.364;2023-06-04T13:28:06;13.87;;;9.10;;
5690;SDS011;2870;42.680;23.364;2023-06-04T13:30:34;16.53;;;8.30;;
5690;SDS011;2870;42.680;23.364;2023-06-04T13:33:02;15.43;;;8.57;;
5690;SDS011;2870;42.680;23.364;2023-06-04T13:35:29;13.00;;;9.53;;
5690;SDS011;2870;42.680;23.364;2023-06-04T13:37:56;12.67;;;9.07;;
5690;SDS011;2870;42.680;23.364;2023-06-04T13:40:23;12.03;;;8.53;;
5690;SDS011;2870;42.680;23.364;2023-06-04T13:42:51;25.43;;;9.20;;
5690;SDS011;2870;42.680;23.364;2023-06-04T13:45:18;15.57;;;9.00;;
5690;SDS011;2870;42.680;23.364;2023-06-04T13:47:46;15.27;;;9.30;;
5690;SDS011;2870;42.680;23.364;2023-06-04T13:50:13;14.50;;;9.33;;
5690;SDS011;2870;42.680;23.364;2023-06-04T13:52:40;11.90;;;8.60;;
5690;SDS011;2870;42.680;23.364;2023-06-04T13:55:07;13.20;;;8.43;;
5690;SDS011;2870;42.680;23.364;2023-06-04T13:57:34;11.93;;;8.13;;
5690;SDS011;2870;42.680;23.364;2023-06-04T14:00:04;12.10;;;8.17;;
5690;SDS011;2870;42.680;23.364;2023-06-04T14:02:32;14.93;;;8.93;;
5690;SDS011;2870;42.680;23.364;2023-06-04T14:04:59;11.53;;;8.47;;
5690;SDS011;2870;42.680;23.364;2023-06-04T14:07:25;10.83;;;8.53;;
5690;SDS011;2870;42.680;23.364;2023-06-04T14:09:52;15.13;;;8.80;;
5690;SDS011;2870;42.680;23.364;2023-06-04T14:12:20;12.00;;;8.77;;
5690;SDS011;2870;42.680;23.364;2023-06-04T14:14:47;13.30;;;8.83;;
5690;SDS011;2870;42.680;23.364;2023-06-04T14:17:15;14.80;;;8.67;;
5690;SDS011;2870;42.680;23.364;2023-06-04T14:19:42;11.17;;;8.20;;
5690;SDS011;2870;42.680;23.364;2023-06-04T14:22:09;11.97;;;8.17;;
5690;SDS011;2870;42.680;23.364;2023-06-04T14:24:36;16.07;;;8.93;;
5690;SDS011;2870;42.680;23.364;2023-06-04T14:27:04;11.70;;;9.10;;
5690;SDS011;2870;42.680;23.364;2023-06-04T14:29:31;10.97;;;8.23;;
5690;SDS011;2870;42.680;23.364;2023-06-04T14:31:59;13.50;;;8.50;;
5690;SDS011;2870;42.680;23.364;2023-06-04T14:34:27;12.03;;;9.10;;
5690;SDS011;2870;42.680;23.364;2023-06-04T14:36:54;14.70;;;9.10;;
5690;SDS011;2870;42.680;23.364;2023-06-04T14:39:22;18.43;;;9.20;;
5690;SDS011;2870;42.680;23.364;2023-06-04T14:41:49;12.90;;;9.33;;
5690;SDS011;2870;42.680;23.364;2023-06-04T14:44:17;12.30;;;8.90;;
5690;SDS011;2870;42.680;23.364;2023-06-04T14:46:44;11.60;;;9.50;;
5690;SDS011;2870;42.680;23.364;2023-06-04T14:49:11;11.50;;;9.60;;
5690;SDS011;2870;42.680;23.364;2023-06-04T14:51:39;21.23;;;9.40;;
5690;SDS011;2870;42.680;23.364;2023-06-04T14:54:06;12.43;;;9.30;;
5690;SDS011;2870;42.680;23.364;2023-06-04T14:56:33;12.30;;;9.33;;